Terminal Aerodrome Forecast
Issued by NWS Paducah, KY

Home | Current Version | Previous Version | Text Only | Print | Product List | Glossary On
Versions: 1 2 3 4 5 6 7 8 9 10 11 12 13 14 15
825
FTUS43 KPAH 262327
TAFEVV
TAF
KEVV 262327Z 2700/2724 18015G22KT P6SM SCT025 BKN060
     FM270400 18012G20KT 6SM -SHRA SCT025 OVC040
      TEMPO 2704/2708 3SM TSRA OVC015CB
     FM270800 24011KT 4SM -DZ OVC015
     FM271400 25010KT P6SM OVC020
     FM272100 25008KT P6SM BKN050=

USA.gov is the U.S. government's official web portal to all federal, state and local government web resources and services.